sensor_id;sensor_type;location;lat;lon;timestamp;P1;durP1;ratioP1;P2;durP2;ratioP2
63434;SDS011;68814;50.872;5.306;2023-05-07T00:01:36;9.55;;;6.15;;
63434;SDS011;68814;50.872;5.306;2023-05-07T00:04:02;8.50;;;6.85;;
63434;SDS011;68814;50.872;5.306;2023-05-07T00:06:28;7.35;;;6.07;;
63434;SDS011;68814;50.872;5.306;2023-05-07T00:08:55;7.68;;;6.15;;
63434;SDS011;68814;50.872;5.306;2023-05-07T00:11:22;7.30;;;5.78;;
63434;SDS011;68814;50.872;5.306;2023-05-07T00:13:47;8.27;;;5.53;;
63434;SDS011;68814;50.872;5.306;2023-05-07T00:16:13;9.38;;;6.68;;
63434;SDS011;68814;50.872;5.306;2023-05-07T00:18:39;9.90;;;7.00;;
63434;SDS011;68814;50.872;5.306;2023-05-07T00:21:05;8.02;;;6.10;;
63434;SDS011;68814;50.872;5.306;2023-05-07T00:23:30;9.57;;;5.50;;
63434;SDS011;68814;50.872;5.306;2023-05-07T00:25:56;11.70;;;6.50;;
63434;SDS011;68814;50.872;5.306;2023-05-07T00:28:22;13.73;;;7.03;;
63434;SDS011;68814;50.872;5.306;2023-05-07T00:30:47;11.05;;;7.55;;
63434;SDS011;68814;50.872;5.306;2023-05-07T00:33:13;13.38;;;7.18;;
63434;SDS011;68814;50.872;5.306;2023-05-07T00:35:38;8.32;;;6.68;;
63434;SDS011;68814;50.872;5.306;2023-05-07T00:38:04;9.00;;;7.00;;
63434;SDS011;68814;50.872;5.306;2023-05-07T00:40:30;8.85;;;6.97;;
63434;SDS011;68814;50.872;5.306;2023-05-07T00:42:56;9.65;;;7.10;;
63434;SDS011;68814;50.872;5.306;2023-05-07T00:45:23;8.38;;;7.20;;
63434;SDS011;68814;50.872;5.306;2023-05-07T00:47:53;9.18;;;7.00;;
63434;SDS011;68814;50.872;5.306;2023-05-07T00:50:20;8.32;;;6.78;;
63434;SDS011;68814;50.872;5.306;2023-05-07T00:52:46;12.10;;;6.65;;
63434;SDS011;68814;50.872;5.306;2023-05-07T00:55:12;9.88;;;6.55;;
63434;SDS011;68814;50.872;5.306;2023-05-07T00:57:40;11.80;;;7.47;;
63434;SDS011;68814;50.872;5.306;2023-05-07T01:00:09;8.73;;;7.40;;
63434;SDS011;68814;50.872;5.306;2023-05-07T01:02:35;11.57;;;7.63;;
63434;SDS011;68814;50.872;5.306;2023-05-07T01:05:01;8.35;;;6.65;;
63434;SDS011;68814;50.872;5.306;2023-05-07T01:07:31;9.82;;;6.85;;
63434;SDS011;68814;50.872;5.306;2023-05-07T01:09:57;7.18;;;6.47;;
63434;SDS011;68814;50.872;5.306;2023-05-07T01:12:23;12.15;;;6.97;;
63434;SDS011;68814;50.872;5.306;2023-05-07T01:14:50;9.32;;;5.90;;
63434;SDS011;68814;50.872;5.306;2023-05-07T01:17:16;8.20;;;6.68;;
63434;SDS011;68814;50.872;5.306;2023-05-07T01:19:42;13.13;;;7.80;;
63434;SDS011;68814;50.872;5.306;2023-05-07T01:22:08;10.52;;;7.43;;
63434;SDS011;68814;50.872;5.306;2023-05-07T01:24:36;9.60;;;7.30;;
63434;SDS011;68814;50.872;5.306;2023-05-07T01:27:02;9.52;;;7.60;;
63434;SDS011;68814;50.872;5.306;2023-05-07T01:29:29;9.52;;;6.80;;
63434;SDS011;68814;50.872;5.306;2023-05-07T01:31:56;11.13;;;8.10;;
63434;SDS011;68814;50.872;5.306;2023-05-07T01:34:25;10.68;;;7.95;;
63434;SDS011;68814;50.872;5.306;2023-05-07T01:36:52;9.23;;;7.25;;
63434;SDS011;68814;50.872;5.306;2023-05-07T01:39:21;10.30;;;7.82;;
63434;SDS011;68814;50.872;5.306;2023-05-07T01:41:49;11.35;;;7.70;;
63434;SDS011;68814;50.872;5.306;2023-05-07T01:44:15;8.13;;;6.95;;
63434;SDS011;68814;50.872;5.306;2023-05-07T01:46:43;10.15;;;7.00;;
63434;SDS011;68814;50.872;5.306;2023-05-07T01:49:09;10.55;;;7.68;;
63434;SDS011;68814;50.872;5.306;2023-05-07T01:51:35;9.85;;;6.85;;
63434;SDS011;68814;50.872;5.306;2023-05-07T01:54:01;11.23;;;8.38;;
63434;SDS011;68814;50.872;5.306;2023-05-07T01:56:27;7.78;;;6.15;;
63434;SDS011;68814;50.872;5.306;2023-05-07T01:58:53;10.48;;;7.00;;
63434;SDS011;68814;50.872;5.306;2023-05-07T02:01:18;9.52;;;7.95;;
63434;SDS011;68814;50.872;5.306;2023-05-07T02:03:44;12.93;;;8.95;;
63434;SDS011;68814;50.872;5.306;2023-05-07T02:06:10;10.77;;;8.32;;
63434;SDS011;68814;50.872;5.306;2023-05-07T02:08:35;13.40;;;8.20;;
63434;SDS011;68814;50.872;5.306;2023-05-07T02:11:01;10.00;;;8.27;;
63434;SDS011;68814;50.872;5.306;2023-05-07T02:13:31;11.98;;;8.45;;
63434;SDS011;68814;50.872;5.306;2023-05-07T02:15:58;12.25;;;9.45;;
63434;SDS011;68814;50.872;5.306;2023-05-07T02:18:23;13.73;;;9.15;;
63434;SDS011;68814;50.872;5.306;2023-05-07T02:20:49;11.95;;;8.63;;
63434;SDS011;68814;50.872;5.306;2023-05-07T02:23:15;11.93;;;8.35;;
63434;SDS011;68814;50.872;5.306;2023-05-07T02:25:40;12.00;;;8.52;;
63434;SDS011;68814;50.872;5.306;2023-05-07T02:28:06;9.63;;;7.80;;
63434;SDS011;68814;50.872;5.306;2023-05-07T02:30:32;9.02;;;6.78;;
63434;SDS011;68814;50.872;5.306;2023-05-07T02:32:58;12.55;;;8.70;;
63434;SDS011;68814;50.872;5.306;2023-05-07T02:35:24;16.85;;;9.27;;
63434;SDS011;68814;50.872;5.306;2023-05-07T02:37:50;11.25;;;8.35;;
63434;SDS011;68814;50.872;5.306;2023-05-07T02:40:16;9.95;;;8.02;;
63434;SDS011;68814;50.872;5.306;2023-05-07T02:42:41;11.95;;;7.43;;
63434;SDS011;68814;50.872;5.306;2023-05-07T02:45:07;11.13;;;8.45;;
63434;SDS011;68814;50.872;5.306;2023-05-07T02:47:33;9.85;;;8.48;;
63434;SDS011;68814;50.872;5.306;2023-05-07T02:49:59;11.32;;;8.43;;
63434;SDS011;68814;50.872;5.306;2023-05-07T02:52:24;10.98;;;8.63;;
63434;SDS011;68814;50.872;5.306;2023-05-07T02:54:50;9.70;;;8.50;;
63434;SDS011;68814;50.872;5.306;2023-05-07T02:57:16;14.85;;;10.40;;
63434;SDS011;68814;50.872;5.306;2023-05-07T02:59:42;13.35;;;9.75;;
63434;SDS011;68814;50.872;5.306;2023-05-07T03:02:07;12.52;;;9.20;;
63434;SDS011;68814;50.872;5.306;2023-05-07T03:04:33;12.85;;;8.75;;
63434;SDS011;68814;50.872;5.306;2023-05-07T03:06:59;12.25;;;9.95;;
63434;SDS011;68814;50.872;5.306;2023-05-07T03:09:25;15.45;;;9.95;;
63434;SDS011;68814;50.872;5.306;2023-05-07T03:11:51;17.25;;;10.35;;
63434;SDS011;68814;50.872;5.306;2023-05-07T03:14:16;12.35;;;9.88;;
63434;SDS011;68814;50.872;5.306;2023-05-07T03:16:42;14.23;;;9.45;;
63434;SDS011;68814;50.872;5.306;2023-05-07T03:19:08;13.07;;;9.05;;
63434;SDS011;68814;50.872;5.306;2023-05-07T03:21:33;11.00;;;9.05;;
63434;SDS011;68814;50.872;5.306;2023-05-07T03:23:59;15.38;;;9.27;;
63434;SDS011;68814;50.872;5.306;2023-05-07T03:26:25;16.38;;;9.50;;
63434;SDS011;68814;50.872;5.306;2023-05-07T03:28:51;15.38;;;10.00;;
63434;SDS011;68814;50.872;5.306;2023-05-07T03:31:17;14.25;;;9.02;;
63434;SDS011;68814;50.872;5.306;2023-05-07T03:33:55;11.23;;;9.57;;
63434;SDS011;68814;50.872;5.306;2023-05-07T03:36:22;12.07;;;9.50;;
63434;SDS011;68814;50.872;5.306;2023-05-07T03:38:49;9.82;;;8.23;;
63434;SDS011;68814;50.872;5.306;2023-05-07T03:41:15;12.20;;;8.90;;
63434;SDS011;68814;50.872;5.306;2023-05-07T03:43:41;14.90;;;10.13;;
63434;SDS011;68814;50.872;5.306;2023-05-07T03:46:07;14.35;;;10.38;;
63434;SDS011;68814;50.872;5.306;2023-05-07T03:48:32;14.57;;;10.32;;
63434;SDS011;68814;50.872;5.306;2023-05-07T03:50:58;13.55;;;9.73;;
63434;SDS011;68814;50.872;5.306;2023-05-07T03:53:24;19.50;;;10.40;;
63434;SDS011;68814;50.872;5.306;2023-05-07T03:55:50;15.98;;;10.02;;
63434;SDS011;68814;50.872;5.306;2023-05-07T03:58:16;13.63;;;8.90;;
63434;SDS011;68814;50.872;5.306;2023-05-07T04:00:41;12.43;;;9.23;;
63434;SDS011;68814;50.872;5.306;2023-05-07T04:03:07;13.63;;;10.25;;
63434;SDS011;68814;50.872;5.306;2023-05-07T04:05:33;11.02;;;9.82;;
63434;SDS011;68814;50.872;5.306;2023-05-07T04:07:59;11.02;;;8.85;;
63434;SDS011;68814;50.872;5.306;2023-05-07T04:10:25;12.57;;;10.02;;
63434;SDS011;68814;50.872;5.306;2023-05-07T04:12:51;15.20;;;11.13;;
63434;SDS011;68814;50.872;5.306;2023-05-07T04:15:16;13.90;;;10.73;;
63434;SDS011;68814;50.872;5.306;2023-05-07T04:17:42;13.18;;;9.73;;
63434;SDS011;68814;50.872;5.306;2023-05-07T04:20:15;14.15;;;11.10;;
63434;SDS011;68814;50.872;5.306;2023-05-07T04:25:07;15.00;;;10.13;;
63434;SDS011;68814;50.872;5.306;2023-05-07T04:27:37;12.88;;;10.68;;
63434;SDS011;68814;50.872;5.306;2023-05-07T04:30:02;11.77;;;8.93;;
63434;SDS011;68814;50.872;5.306;2023-05-07T04:32:29;11.93;;;9.43;;
63434;SDS011;68814;50.872;5.306;2023-05-07T04:34:55;14.35;;;10.35;;
63434;SDS011;68814;50.872;5.306;2023-05-07T04:37:21;14.35;;;10.23;;
63434;SDS011;68814;50.872;5.306;2023-05-07T04:39:47;12.00;;;10.13;;
63434;SDS011;68814;50.872;5.306;2023-05-07T04:42:16;12.95;;;10.07;;
63434;SDS011;68814;50.872;5.306;2023-05-07T04:44:43;15.52;;;10.70;;
63434;SDS011;68814;50.872;5.306;2023-05-07T04:47:09;15.00;;;11.13;;
63434;SDS011;68814;50.872;5.306;2023-05-07T04:49:35;12.45;;;9.82;;
63434;SDS011;68814;50.872;5.306;2023-05-07T04:52:01;13.45;;;10.65;;
63434;SDS011;68814;50.872;5.306;2023-05-07T04:54:28;13.90;;;10.45;;
63434;SDS011;68814;50.872;5.306;2023-05-07T04:56:54;16.55;;;11.70;;
63434;SDS011;68814;50.872;5.306;2023-05-07T04:59:19;15.43;;;11.30;;
63434;SDS011;68814;50.872;5.306;2023-05-07T05:01:45;12.02;;;9.88;;
63434;SDS011;68814;50.872;5.306;2023-05-07T05:04:10;13.73;;;10.13;;
63434;SDS011;68814;50.872;5.306;2023-05-07T05:06:45;11.70;;;9.80;;
63434;SDS011;68814;50.872;5.306;2023-05-07T05:09:11;10.73;;;9.10;;
63434;SDS011;68814;50.872;5.306;2023-05-07T05:11:36;16.55;;;9.63;;
63434;SDS011;68814;50.872;5.306;2023-05-07T05:14:02;13.23;;;9.82;;
63434;SDS011;68814;50.872;5.306;2023-05-07T05:16:28;18.13;;;11.50;;
63434;SDS011;68814;50.872;5.306;2023-05-07T05:18:53;13.98;;;11.27;;
63434;SDS011;68814;50.872;5.306;2023-05-07T05:21:20;16.58;;;12.13;;
63434;SDS011;68814;50.872;5.306;2023-05-07T05:23:45;13.18;;;10.75;;
63434;SDS011;68814;50.872;5.306;2023-05-07T05:26:11;16.02;;;11.23;;
63434;SDS011;68814;50.872;5.306;2023-05-07T05:28:40;14.80;;;10.13;;
63434;SDS011;68814;50.872;5.306;2023-05-07T05:31:05;12.98;;;11.07;;
63434;SDS011;68814;50.872;5.306;2023-05-07T05:33:32;17.17;;;10.65;;
63434;SDS011;68814;50.872;5.306;2023-05-07T05:35:58;10.25;;;8.95;;
63434;SDS011;68814;50.872;5.306;2023-05-07T05:38:24;12.88;;;10.32;;
63434;SDS011;68814;50.872;5.306;2023-05-07T05:40:50;13.35;;;10.93;;
63434;SDS011;68814;50.872;5.306;2023-05-07T05:43:16;13.82;;;10.10;;
63434;SDS011;68814;50.872;5.306;2023-05-07T05:45:42;13.18;;;10.25;;
63434;SDS011;68814;50.872;5.306;2023-05-07T05:48:07;10.95;;;9.45;;
63434;SDS011;68814;50.872;5.306;2023-05-07T05:50:33;11.45;;;10.05;;
63434;SDS011;68814;50.872;5.306;2023-05-07T05:53:01;11.05;;;9.52;;
63434;SDS011;68814;50.872;5.306;2023-05-07T05:55:27;12.55;;;9.75;;
63434;SDS011;68814;50.872;5.306;2023-05-07T05:57:54;11.60;;;9.85;;
63434;SDS011;68814;50.872;5.306;2023-05-07T06:00:20;10.60;;;8.98;;
63434;SDS011;68814;50.872;5.306;2023-05-07T06:02:47;11.85;;;9.75;;
63434;SDS011;68814;50.872;5.306;2023-05-07T06:05:13;12.18;;;9.32;;
63434;SDS011;68814;50.872;5.306;2023-05-07T06:07:39;13.75;;;9.65;;
63434;SDS011;68814;50.872;5.306;2023-05-07T06:10:06;12.27;;;9.30;;
63434;SDS011;68814;50.872;5.306;2023-05-07T06:12:32;15.60;;;9.63;;
63434;SDS011;68814;50.872;5.306;2023-05-07T06:14:57;11.57;;;9.48;;
63434;SDS011;68814;50.872;5.306;2023-05-07T06:17:23;11.50;;;9.60;;
63434;SDS011;68814;50.872;5.306;2023-05-07T06:19:49;11.57;;;9.60;;
63434;SDS011;68814;50.872;5.306;2023-05-07T06:22:14;10.80;;;8.98;;
63434;SDS011;68814;50.872;5.306;2023-05-07T06:24:40;10.30;;;8.68;;
63434;SDS011;68814;50.872;5.306;2023-05-07T06:27:06;13.98;;;9.55;;
63434;SDS011;68814;50.872;5.306;2023-05-07T06:29:31;13.57;;;9.02;;
63434;SDS011;68814;50.872;5.306;2023-05-07T06:32:19;10.20;;;8.10;;
63434;SDS011;68814;50.872;5.306;2023-05-07T06:34:44;12.43;;;8.63;;
63434;SDS011;68814;50.872;5.306;2023-05-07T06:37:10;13.13;;;7.88;;
63434;SDS011;68814;50.872;5.306;2023-05-07T06:39:35;10.48;;;7.78;;
63434;SDS011;68814;50.872;5.306;2023-05-07T06:42:01;10.70;;;7.97;;
63434;SDS011;68814;50.872;5.306;2023-05-07T06:44:27;7.93;;;7.13;;
63434;SDS011;68814;50.872;5.306;2023-05-07T06:46:53;10.02;;;7.07;;
63434;SDS011;68814;50.872;5.306;2023-05-07T06:49:18;9.82;;;7.10;;
63434;SDS011;68814;50.872;5.306;2023-05-07T06:51:44;10.63;;;7.18;;
63434;SDS011;68814;50.872;5.306;2023-05-07T06:54:10;9.63;;;6.90;;
63434;SDS011;68814;50.872;5.306;2023-05-07T06:56:35;9.65;;;6.30;;
63434;SDS011;68814;50.872;5.306;2023-05-07T06:59:01;11.77;;;7.68;;
63434;SDS011;68814;50.872;5.306;2023-05-07T07:01:28;9.73;;;6.53;;
63434;SDS011;68814;50.872;5.306;2023-05-07T07:03:54;7.40;;;5.40;;
63434;SDS011;68814;50.872;5.306;2023-05-07T07:06:20;12.00;;;6.57;;
63434;SDS011;68814;50.872;5.306;2023-05-07T07:08:45;7.85;;;5.78;;
63434;SDS011;68814;50.872;5.306;2023-05-07T07:11:11;7.18;;;5.80;;
63434;SDS011;68814;50.872;5.306;2023-05-07T07:13:37;8.55;;;5.70;;
63434;SDS011;68814;50.872;5.306;2023-05-07T07:16:03;8.65;;;5.63;;
63434;SDS011;68814;50.872;5.306;2023-05-07T07:18:28;8.43;;;5.25;;
63434;SDS011;68814;50.872;5.306;2023-05-07T07:20:54;8.25;;;5.05;;
63434;SDS011;68814;50.872;5.306;2023-05-07T07:23:20;10.50;;;5.90;;
63434;SDS011;68814;50.872;5.306;2023-05-07T07:25:46;6.80;;;5.38;;
63434;SDS011;68814;50.872;5.306;2023-05-07T07:28:12;12.13;;;6.00;;
63434;SDS011;68814;50.872;5.306;2023-05-07T07:30:39;9.95;;;5.95;;
63434;SDS011;68814;50.872;5.306;2023-05-07T07:33:05;7.57;;;5.80;;
63434;SDS011;68814;50.872;5.306;2023-05-07T07:35:33;9.48;;;5.45;;
63434;SDS011;68814;50.872;5.306;2023-05-07T07:37:59;7.15;;;4.70;;
63434;SDS011;68814;50.872;5.306;2023-05-07T07:40:24;13.10;;;5.78;;
63434;SDS011;68814;50.872;5.306;2023-05-07T07:42:53;11.30;;;6.13;;
63434;SDS011;68814;50.872;5.306;2023-05-07T07:45:19;8.63;;;5.10;;
63434;SDS011;68814;50.872;5.306;2023-05-07T07:47:45;7.50;;;5.18;;
63434;SDS011;68814;50.872;5.306;2023-05-07T07:50:11;8.25;;;4.70;;
63434;SDS011;68814;50.872;5.306;2023-05-07T07:52:37;6.95;;;4.50;;
63434;SDS011;68814;50.872;5.306;2023-05-07T07:55:03;9.18;;;4.40;;
63434;SDS011;68814;50.872;5.306;2023-05-07T07:57:29;6.40;;;5.00;;
63434;SDS011;68814;50.872;5.306;2023-05-07T07:59:55;10.00;;;5.60;;
63434;SDS011;68814;50.872;5.306;2023-05-07T08:02:21;7.00;;;4.40;;
63434;SDS011;68814;50.872;5.306;2023-05-07T08:04:46;7.47;;;4.50;;
63434;SDS011;68814;50.872;5.306;2023-05-07T08:07:12;8.63;;;4.78;;
63434;SDS011;68814;50.872;5.306;2023-05-07T08:09:38;11.70;;;5.43;;
63434;SDS011;68814;50.872;5.306;2023-05-07T08:12:05;9.07;;;4.68;;
63434;SDS011;68814;50.872;5.306;2023-05-07T08:14:31;7.68;;;5.22;;
63434;SDS011;68814;50.872;5.306;2023-05-07T08:16:57;10.55;;;4.70;;
63434;SDS011;68814;50.872;5.306;2023-05-07T08:19:23;9.10;;;3.40;;
63434;SDS011;68814;50.872;5.306;2023-05-07T08:21:49;10.25;;;3.83;;
63434;SDS011;68814;50.872;5.306;2023-05-07T08:24:16;9.30;;;3.97;;
63434;SDS011;68814;50.872;5.306;2023-05-07T08:26:42;7.43;;;3.50;;
63434;SDS011;68814;50.872;5.306;2023-05-07T08:29:09;5.82;;;3.58;;
63434;SDS011;68814;50.872;5.306;2023-05-07T08:31:37;9.20;;;4.50;;
63434;SDS011;68814;50.872;5.306;2023-05-07T08:34:06;7.00;;;3.47;;
63434;SDS011;68814;50.872;5.306;2023-05-07T08:36:32;7.32;;;3.20;;
63434;SDS011;68814;50.872;5.306;2023-05-07T08:38:57;5.82;;;3.03;;
63434;SDS011;68814;50.872;5.306;2023-05-07T08:41:24;6.60;;;3.67;;
63434;SDS011;68814;50.872;5.306;2023-05-07T08:43:50;11.48;;;3.92;;
63434;SDS011;68814;50.872;5.306;2023-05-07T08:46:20;7.00;;;3.80;;
63434;SDS011;68814;50.872;5.306;2023-05-07T08:48:53;8.85;;;3.65;;
63434;SDS011;68814;50.872;5.306;2023-05-07T08:51:19;8.40;;;4.00;;
63434;SDS011;68814;50.872;5.306;2023-05-07T08:53:46;8.07;;;4.18;;
63434;SDS011;68814;50.872;5.306;2023-05-07T08:56:16;6.30;;;3.45;;
63434;SDS011;68814;50.872;5.306;2023-05-07T08:58:43;6.63;;;3.92;;
63434;SDS011;68814;50.872;5.306;2023-05-07T09:01:13;9.18;;;4.78;;
63434;SDS011;68814;50.872;5.306;2023-05-07T09:03:40;10.27;;;4.68;;
63434;SDS011;68814;50.872;5.306;2023-05-07T09:06:09;6.60;;;4.40;;
63434;SDS011;68814;50.872;5.306;2023-05-07T09:08:35;9.57;;;5.35;;
63434;SDS011;68814;50.872;5.306;2023-05-07T09:11:01;8.27;;;4.88;;
63434;SDS011;68814;50.872;5.306;2023-05-07T09:13:27;10.98;;;5.85;;
63434;SDS011;68814;50.872;5.306;2023-05-07T09:15:54;10.20;;;5.40;;
63434;SDS011;68814;50.872;5.306;2023-05-07T09:18:20;9.57;;;5.32;;
63434;SDS011;68814;50.872;5.306;2023-05-07T09:20:46;10.23;;;5.25;;
63434;SDS011;68814;50.872;5.306;2023-05-07T09:23:12;10.18;;;5.60;;
63434;SDS011;68814;50.872;5.306;2023-05-07T09:25:38;8.00;;;5.68;;
63434;SDS011;68814;50.872;5.306;2023-05-07T09:28:04;5.72;;;4.97;;
63434;SDS011;68814;50.872;5.306;2023-05-07T09:30:36;8.77;;;5.13;;
63434;SDS011;68814;50.872;5.306;2023-05-07T09:33:05;8.80;;;5.60;;
63434;SDS011;68814;50.872;5.306;2023-05-07T09:35:30;9.38;;;5.68;;
63434;SDS011;68814;50.872;5.306;2023-05-07T09:37:58;10.27;;;5.30;;
63434;SDS011;68814;50.872;5.306;2023-05-07T09:40:27;11.80;;;5.15;;
63434;SDS011;68814;50.872;5.306;2023-05-07T09:42:54;8.85;;;4.95;;
63434;SDS011;68814;50.872;5.306;2023-05-07T09:45:27;11.95;;;4.20;;
63434;SDS011;68814;50.872;5.306;2023-05-07T09:47:54;10.52;;;4.18;;
63434;SDS011;68814;50.872;5.306;2023-05-07T09:50:23;10.30;;;3.67;;
63434;SDS011;68814;50.872;5.306;2023-05-07T09:52:53;9.93;;;3.65;;
63434;SDS011;68814;50.872;5.306;2023-05-07T09:55:21;9.00;;;3.10;;
63434;SDS011;68814;50.872;5.306;2023-05-07T09:57:48;8.18;;;3.05;;
63434;SDS011;68814;50.872;5.306;2023-05-07T10:00:17;7.43;;;3.10;;
63434;SDS011;68814;50.872;5.306;2023-05-07T10:02:45;7.82;;;2.92;;
63434;SDS011;68814;50.872;5.306;2023-05-07T10:05:16;11.32;;;3.20;;
63434;SDS011;68814;50.872;5.306;2023-05-07T10:07:43;8.23;;;2.95;;
63434;SDS011;68814;50.872;5.306;2023-05-07T10:10:10;11.05;;;3.40;;
63434;SDS011;68814;50.872;5.306;2023-05-07T10:12:36;10.07;;;3.10;;
63434;SDS011;68814;50.872;5.306;2023-05-07T10:15:07;8.68;;;3.33;;
63434;SDS011;68814;50.872;5.306;2023-05-07T10:17:35;9.05;;;3.60;;
63434;SDS011;68814;50.872;5.306;2023-05-07T10:20:03;7.60;;;3.55;;
63434;SDS011;68814;50.872;5.306;2023-05-07T10:22:41;7.95;;;3.63;;
63434;SDS011;68814;50.872;5.306;2023-05-07T10:25:14;13.32;;;4.38;;
63434;SDS011;68814;50.872;5.306;2023-05-07T10:27:45;10.93;;;3.80;;
63434;SDS011;68814;50.872;5.306;2023-05-07T10:30:22;10.13;;;4.00;;
63434;SDS011;68814;50.872;5.306;2023-05-07T10:33:01;12.88;;;3.90;;
63434;SDS011;68814;50.872;5.306;2023-05-07T10:35:31;11.38;;;3.95;;
63434;SDS011;68814;50.872;5.306;2023-05-07T10:38:02;10.00;;;4.47;;
63434;SDS011;68814;50.872;5.306;2023-05-07T10:40:30;14.05;;;4.95;;
63434;SDS011;68814;50.872;5.306;2023-05-07T10:42:59;11.23;;;4.50;;
63434;SDS011;68814;50.872;5.306;2023-05-07T10:45:26;9.00;;;3.90;;
63434;SDS011;68814;50.872;5.306;2023-05-07T10:50:34;11.07;;;4.65;;
63434;SDS011;68814;50.872;5.306;2023-05-07T10:53:22;12.10;;;5.13;;
63434;SDS011;68814;50.872;5.306;2023-05-07T10:55:50;9.07;;;4.57;;
63434;SDS011;68814;50.872;5.306;2023-05-07T10:58:29;16.40;;;5.53;;
63434;SDS011;68814;50.872;5.306;2023-05-07T11:00:59;9.77;;;4.28;;
63434;SDS011;68814;50.872;5.306;2023-05-07T11:03:26;8.43;;;4.18;;
63434;SDS011;68814;50.872;5.306;2023-05-07T11:06:08;9.70;;;4.18;;
63434;SDS011;68814;50.872;5.306;2023-05-07T11:08:57;10.10;;;4.10;;
63434;SDS011;68814;50.872;5.306;2023-05-07T11:17:06;13.48;;;4.95;;
63434;SDS011;68814;50.872;5.306;2023-05-07T11:19:48;6.78;;;4.03;;
63434;SDS011;68814;50.872;5.306;2023-05-07T11:25:00;9.88;;;4.25;;
63434;SDS011;68814;50.872;5.306;2023-05-07T11:27:30;9.40;;;4.20;;
63434;SDS011;68814;50.872;5.306;2023-05-07T11:29:56;7.30;;;4.22;;
63434;SDS011;68814;50.872;5.306;2023-05-07T11:32:28;10.90;;;4.97;;
63434;SDS011;68814;50.872;5.306;2023-05-07T11:34:56;11.00;;;4.97;;
63434;SDS011;68814;50.872;5.306;2023-05-07T11:37:23;10.00;;;5.28;;
63434;SDS011;68814;50.872;5.306;2023-05-07T11:39:50;8.07;;;4.50;;
63434;SDS011;68814;50.872;5.306;2023-05-07T11:42:30;9.52;;;4.60;;
63434;SDS011;68814;50.872;5.306;2023-05-07T11:44:57;11.40;;;5.10;;
63434;SDS011;68814;50.872;5.306;2023-05-07T11:47:23;12.45;;;5.07;;
63434;SDS011;68814;50.872;5.306;2023-05-07T11:49:54;10.50;;;4.28;;
63434;SDS011;68814;50.872;5.306;2023-05-07T11:54:53;10.77;;;4.20;;
63434;SDS011;68814;50.872;5.306;2023-05-07T11:57:20;13.38;;;4.88;;
63434;SDS011;68814;50.872;5.306;2023-05-07T11:59:56;9.80;;;4.03;;
63434;SDS011;68814;50.872;5.306;2023-05-07T12:02:23;7.38;;;4.43;;
63434;SDS011;68814;50.872;5.306;2023-05-07T12:04:53;12.18;;;5.00;;
63434;SDS011;68814;50.872;5.306;2023-05-07T12:07:19;13.38;;;4.40;;
63434;SDS011;68814;50.872;5.306;2023-05-07T12:09:46;11.27;;;4.05;;
63434;SDS011;68814;50.872;5.306;2023-05-07T12:12:12;9.70;;;4.05;;
63434;SDS011;68814;50.872;5.306;2023-05-07T12:14:44;10.20;;;3.67;;
63434;SDS011;68814;50.872;5.306;2023-05-07T12:17:11;7.72;;;3.72;;
63434;SDS011;68814;50.872;5.306;2023-05-07T12:19:39;9.05;;;4.32;;
63434;SDS011;68814;50.872;5.306;2023-05-07T12:22:07;9.32;;;4.22;;
63434;SDS011;68814;50.872;5.306;2023-05-07T12:24:46;8.90;;;4.22;;
63434;SDS011;68814;50.872;5.306;2023-05-07T12:27:13;10.45;;;4.00;;
63434;SDS011;68814;50.872;5.306;2023-05-07T12:29:43;10.65;;;4.22;;
63434;SDS011;68814;50.872;5.306;2023-05-07T12:32:13;9.63;;;3.73;;
63434;SDS011;68814;50.872;5.306;2023-05-07T12:34:40;11.07;;;4.50;;
63434;SDS011;68814;50.872;5.306;2023-05-07T12:37:06;14.88;;;5.18;;
63434;SDS011;68814;50.872;5.306;2023-05-07T12:39:32;7.90;;;3.80;;
63434;SDS011;68814;50.872;5.306;2023-05-07T12:41:58;8.90;;;4.10;;
63434;SDS011;68814;50.872;5.306;2023-05-07T12:44:25;11.00;;;4.35;;
63434;SDS011;68814;50.872;5.306;2023-05-07T12:46:55;10.25;;;4.82;;
63434;SDS011;68814;50.872;5.306;2023-05-07T12:49:21;11.50;;;4.40;;
63434;SDS011;68814;50.872;5.306;2023-05-07T12:51:48;8.25;;;4.55;;
63434;SDS011;68814;50.872;5.306;2023-05-07T12:54:27;11.35;;;4.35;;
63434;SDS011;68814;50.872;5.306;2023-05-07T12:57:02;6.68;;;3.53;;
63434;SDS011;68814;50.872;5.306;2023-05-07T12:59:37;9.95;;;4.28;;
63434;SDS011;68814;50.872;5.306;2023-05-07T13:02:04;9.95;;;3.20;;
63434;SDS011;68814;50.872;5.306;2023-05-07T13:04:30;8.43;;;3.63;;
63434;SDS011;68814;50.872;5.306;2023-05-07T13:06:56;6.35;;;3.17;;
63434;SDS011;68814;50.872;5.306;2023-05-07T13:09:22;6.75;;;3.03;;
63434;SDS011;68814;50.872;5.306;2023-05-07T13:11:48;6.32;;;3.05;;
63434;SDS011;68814;50.872;5.306;2023-05-07T13:14:14;5.30;;;2.90;;
63434;SDS011;68814;50.872;5.306;2023-05-07T13:16:40;7.07;;;3.30;;
63434;SDS011;68814;50.872;5.306;2023-05-07T13:19:06;7.80;;;3.33;;
63434;SDS011;68814;50.872;5.306;2023-05-07T13:21:32;6.53;;;3.10;;
63434;SDS011;68814;50.872;5.306;2023-05-07T13:23:58;6.53;;;3.30;;
63434;SDS011;68814;50.872;5.306;2023-05-07T13:26:24;10.25;;;3.60;;
63434;SDS011;68814;50.872;5.306;2023-05-07T13:28:55;5.22;;;2.72;;
63434;SDS011;68814;50.872;5.306;2023-05-07T13:31:21;8.18;;;2.83;;
63434;SDS011;68814;50.872;5.306;2023-05-07T13:34:13;7.78;;;2.97;;
63434;SDS011;68814;50.872;5.306;2023-05-07T13:36:51;6.72;;;2.70;;
63434;SDS011;68814;50.872;5.306;2023-05-07T13:39:17;8.82;;;2.25;;
63434;SDS011;68814;50.872;5.306;2023-05-07T13:41:45;6.10;;;2.03;;
63434;SDS011;68814;50.872;5.306;2023-05-07T13:44:20;7.53;;;2.58;;
63434;SDS011;68814;50.872;5.306;2023-05-07T13:46:48;4.90;;;1.73;;
63434;SDS011;68814;50.872;5.306;2023-05-07T13:49:36;5.40;;;1.70;;
63434;SDS011;68814;50.872;5.306;2023-05-07T13:52:01;6.15;;;2.05;;
63434;SDS011;68814;50.872;5.306;2023-05-07T13:54:47;5.88;;;2.58;;
63434;SDS011;68814;50.872;5.306;2023-05-07T13:57:16;5.95;;;2.70;;
63434;SDS011;68814;50.872;5.306;2023-05-07T13:59:42;7.32;;;2.50;;
63434;SDS011;68814;50.872;5.306;2023-05-07T14:02:11;5.88;;;2.83;;
63434;SDS011;68814;50.872;5.306;2023-05-07T14:04:40;8.80;;;2.83;;
63434;SDS011;68814;50.872;5.306;2023-05-07T14:07:17;8.13;;;2.90;;
63434;SDS011;68814;50.872;5.306;2023-05-07T14:10:02;7.07;;;2.70;;
63434;SDS011;68814;50.872;5.306;2023-05-07T14:12:28;12.82;;;3.70;;
63434;SDS011;68814;50.872;5.306;2023-05-07T14:14:56;9.18;;;4.03;;
63434;SDS011;68814;50.872;5.306;2023-05-07T14:17:22;7.15;;;3.10;;
63434;SDS011;68814;50.872;5.306;2023-05-07T14:19:54;5.03;;;2.97;;
63434;SDS011;68814;50.872;5.306;2023-05-07T14:22:20;6.75;;;2.95;;
63434;SDS011;68814;50.872;5.306;2023-05-07T14:24:50;7.47;;;2.80;;
63434;SDS011;68814;50.872;5.306;2023-05-07T14:27:16;6.70;;;2.55;;
63434;SDS011;68814;50.872;5.306;2023-05-07T14:30:02;6.40;;;2.88;;
63434;SDS011;68814;50.872;5.306;2023-05-07T14:32:28;5.43;;;2.47;;
63434;SDS011;68814;50.872;5.306;2023-05-07T14:34:54;7.30;;;2.47;;
63434;SDS011;68814;50.872;5.306;2023-05-07T14:37:20;7.07;;;3.00;;
63434;SDS011;68814;50.872;5.306;2023-05-07T14:39:46;8.02;;;3.00;;
63434;SDS011;68814;50.872;5.306;2023-05-07T14:42:11;6.90;;;2.85;;
63434;SDS011;68814;50.872;5.306;2023-05-07T14:44:37;6.63;;;2.47;;
63434;SDS011;68814;50.872;5.306;2023-05-07T14:47:05;6.95;;;3.20;;
63434;SDS011;68814;50.872;5.306;2023-05-07T14:49:31;6.60;;;2.53;;
63434;SDS011;68814;50.872;5.306;2023-05-07T14:51:57;9.50;;;3.10;;
63434;SDS011;68814;50.872;5.306;2023-05-07T14:54:24;5.78;;;2.72;;
63434;SDS011;68814;50.872;5.306;2023-05-07T14:56:50;7.07;;;3.58;;